Digges, Canada
Current Conditions -  °F | °C
As of 8:00 AM on Thursday 29 Jan 2015 (Local Time) from CYYQ Reporting Station
Clear Clear  
Wind Chill: -47°   Ceiling: Unl
Heat Index: -24°   Visibility: 15mi
Dew Point: -31°   Wind: 12mph
Humidity: 69%   Direction: 290°WNW
Pressure: 30.26"   Gusts: 17mph
Location:  58.57°N, 94.12°W
Report Text: CYYQ 291400Z 29010G15KT 15SM SKC M31/M35 A3026 RMK SLP253
Loading
Personal Weather Stations






























Interactive Weather Map New forecast layout! Learn more

10-Day Weather Forecast

Advertisements
Track Severe Weather on mobile